Friendsville, Tennessee
Current Conditions -  °F | °C
As of 4:53 AM on Wednesday 22 Oct 2014 (Local Time) from KTYS Reporting Station
Clear Clear  
Wind Chill: 42°   Ceiling: Unl
Heat Index: 45°   Visibility: 10mi
Dew Point: 40°   Wind: 6mph
Humidity: 82%   Direction: 10°N
Pressure: 30.11"   Gusts: NA
Location:  35.76°N, 84.14°W
Report Text: KTYS 220853Z 01005KT 10SM CLR 07/04 A3011 RMK AO2 SLP194 T00720044 53008
Loading
Personal Weather Stations






























Interactive Weather Map
Tropical Storm Tracking
New forecast layout! Learn more

10-Day Weather Forecast

Advertisements
Track Severe Weather on mobile